Airport Information

KRNT - Renton Airport

KRNT 251053Z AUTO 00000KT 10SM CLR 05/02 A3006 RMK AO2 SLP185 T00500022


  • General Information

  • Coordinates: N 47°29'35"/ W 122°12'56"
  • Location: N/A
  • Surveyed Elevation: 32 MSL

Operations

Flow Name Active Runways Conditions

Green background denotes normal operations.


Common Frequencies

Callsign Frequency Position Name

More at the Document Center


Charts

Name Description Cycle
RENTN THREE Page 1 1903
BELLEVUE FOUR Page 1 1903
Name Description Cycle
CHINS THREE Page 1 | Page 2 1903
EPHRATA EIGHT Page 1 1903
GLASR ONE Page 1 | Page 2 1903
OLYMPIA TWO Page 1 | Page 2 1903